Aviation Digital Data Service (ADDS)

Output produced by METARs form (0732 UTC 22 August 2017)
found at http://aviationweather.gov/adds/metars/
 
TAF COR KECG 220553Z 2206/2306 VRB03KT P6SM SKC 
     FM220900 VRB03KT 4SM BR SCT005 SCT200 
     FM221200 20006KT P6SM SCT020 SCT150 
     FM221500 19009KT P6SM SCT040